Huvudsida
METAR-TAF:

METAR-TAF

Flygplatser :

Kalmar Öland Airport

Kalmar, Sverige

latitud: 56-44N, longitud: 016-18E, höjd: 16 m

Aktuellt väderrapport

Denna rapport gjordes för 43 minuter sedan, klockan 19:50 UTC
Vind 8 kt från nordost
Temperatur 4°C
Fuktighet 87%
Tryck 1034 hPa
Sikt 10 km eller mer
Få moln på en höjd av 1400 ft
Spridda moln på en höjd av 1800 ft
Brutna moln på en höjd av 3500 ft

METAR: ESMQ 191950Z 04008KT 9999 FEW014 SCT018 BKN035 04/02 Q1034

Tid: 21:33 (20:33 UTC)

Väderprognos

Denna rapport gjordes för 3 timmar och 3 minuter sedan, klockan 17:30 UTC
Prognos gäller från 19 kl. 18 UTC till 19 kl. 23 UTC
Vind 8 kt från ost/nordost
Sikt 10 km eller mer
Brutna moln på en höjd av 2500 ft
Temporärt
från 19 kl. 18 UTC till 19 kl. 23 UTC
Spridda moln på en höjd av 1500 ft, Högtornande cumulus.

TAF: ESMQ 191730Z 1918/1923 06008KT 9999 BKN025 TEMPO 1918/1923 SCT015TCU

Aktuella väderrapporter och prognoser från 4000 flygplatser (METAR- och TAF-rapporter).

De tillgängliga stationerna syns som gula och röda prickar på kartan.

För musen över prickarna för att se namnen på stationerna.

Klicka sedan för att få väderrapporter och prognoser.

För att ändra kartan: Klicka på de gröna knapparna med ett svart kors på för att zooma in; den gröna knappen med ett streck på för att zooma ut; eller på de gröna pilarna för angränsande kartor.


METAR-TAF: